sensor_id;sensor_type;location;lat;lon;timestamp;pressure;altitude;pressure_sealevel;temperature
80537;BMP280;69867;47.074;15.404;2024-02-04T00:02:08;97953.31;;;3.93
80537;BMP280;69867;47.074;15.404;2024-02-04T00:04:33;97937.84;;;3.90
80537;BMP280;69867;47.074;15.404;2024-02-04T00:06:58;97934.31;;;3.82
80537;BMP280;69867;47.074;15.404;2024-02-04T00:09:24;97935.97;;;3.74
80537;BMP280;69867;47.074;15.404;2024-02-04T00:11:49;97942.72;;;3.63
80537;BMP280;69867;47.074;15.404;2024-02-04T00:14:15;97933.97;;;3.45
80537;BMP280;69867;47.074;15.404;2024-02-04T00:16:40;97924.44;;;3.35
80537;BMP280;69867;47.074;15.404;2024-02-04T00:19:06;97932.03;;;3.23
80537;BMP280;69867;47.074;15.404;2024-02-04T00:21:31;97937.91;;;3.14
80537;BMP280;69867;47.074;15.404;2024-02-04T00:23:57;97935.28;;;3.10
80537;BMP280;69867;47.074;15.404;2024-02-04T00:26:22;97929.25;;;3.06
80537;BMP280;69867;47.074;15.404;2024-02-04T00:28:47;97939.56;;;3.08
80537;BMP280;69867;47.074;15.404;2024-02-04T00:31:13;97926.72;;;3.09
80537;BMP280;69867;47.074;15.404;2024-02-04T00:33:38;97931.78;;;3.02
80537;BMP280;69867;47.074;15.404;2024-02-04T00:36:04;97935.19;;;3.01
80537;BMP280;69867;47.074;15.404;2024-02-04T00:38:29;97942.00;;;2.99
80537;BMP280;69867;47.074;15.404;2024-02-04T00:40:55;97934.31;;;2.99
80537;BMP280;69867;47.074;15.404;2024-02-04T00:43:20;97933.47;;;3.01
80537;BMP280;69867;47.074;15.404;2024-02-04T00:45:46;97944.63;;;3.03
80537;BMP280;69867;47.074;15.404;2024-02-04T00:48:11;97940.34;;;3.04
80537;BMP280;69867;47.074;15.404;2024-02-04T00:50:36;97937.81;;;3.07
80537;BMP280;69867;47.074;15.404;2024-02-04T00:53:02;97926.69;;;3.06
80537;BMP280;69867;47.074;15.404;2024-02-04T00:55:27;97920.69;;;3.04
80537;BMP280;69867;47.074;15.404;2024-02-04T00:57:52;97923.31;;;3.09
80537;BMP280;69867;47.074;15.404;2024-02-04T01:00:18;97915.66;;;3.13
80537;BMP280;69867;47.074;15.404;2024-02-04T01:02:43;97916.47;;;3.11
80537;BMP280;69867;47.074;15.404;2024-02-04T01:05:09;97908.72;;;3.05
80537;BMP280;69867;47.074;15.404;2024-02-04T01:07:34;97916.38;;;3.02
80537;BMP280;69867;47.074;15.404;2024-02-04T01:09:59;97906.91;;;2.98
80537;BMP280;69867;47.074;15.404;2024-02-04T01:12:25;97915.47;;;2.97
80537;BMP280;69867;47.074;15.404;2024-02-04T01:14:50;97923.16;;;2.97
80537;BMP280;69867;47.074;15.404;2024-02-04T01:17:15;97929.06;;;2.89
80537;BMP280;69867;47.074;15.404;2024-02-04T01:19:41;97932.50;;;2.92
80537;BMP280;69867;47.074;15.404;2024-02-04T01:22:06;97924.81;;;2.92
80537;BMP280;69867;47.074;15.404;2024-02-04T01:24:32;97924.84;;;2.95
80537;BMP280;69867;47.074;15.404;2024-02-04T01:26:57;97932.56;;;2.96
80537;BMP280;69867;47.074;15.404;2024-02-04T01:29:22;97928.34;;;3.01
80537;BMP280;69867;47.074;15.404;2024-02-04T01:31:48;97935.28;;;3.10
80537;BMP280;69867;47.074;15.404;2024-02-04T01:34:13;97919.94;;;3.14
80537;BMP280;69867;47.074;15.404;2024-02-04T01:36:38;97922.53;;;3.17
80537;BMP280;69867;47.074;15.404;2024-02-04T01:39:04;97929.41;;;3.20
80537;BMP280;69867;47.074;15.404;2024-02-04T01:41:29;97937.13;;;3.20
80537;BMP280;69867;47.074;15.404;2024-02-04T01:43:55;97933.66;;;3.16
80537;BMP280;69867;47.074;15.404;2024-02-04T01:46:20;97927.66;;;3.16
80537;BMP280;69867;47.074;15.404;2024-02-04T01:48:46;97927.69;;;3.17
80537;BMP280;69867;47.074;15.404;2024-02-04T01:51:13;97930.97;;;3.07
80537;BMP280;69867;47.074;15.404;2024-02-04T01:53:42;97930.09;;;3.04
80537;BMP280;69867;47.074;15.404;2024-02-04T01:56:10;97924.97;;;3.05
80537;BMP280;69867;47.074;15.404;2024-02-04T01:58:35;97924.13;;;3.05
80537;BMP280;69867;47.074;15.404;2024-02-04T02:01:01;97931.81;;;3.05
80537;BMP280;69867;47.074;15.404;2024-02-04T02:03:28;97930.06;;;3.02
80537;BMP280;69867;47.074;15.404;2024-02-04T02:05:54;97930.88;;;2.98
80537;BMP280;69867;47.074;15.404;2024-02-04T02:08:20;97916.31;;;2.96
80537;BMP280;69867;47.074;15.404;2024-02-04T02:10:46;97897.50;;;2.97
80537;BMP280;69867;47.074;15.404;2024-02-04T02:13:22;97891.47;;;2.93
80537;BMP280;69867;47.074;15.404;2024-02-04T02:15:52;97913.69;;;2.93
80537;BMP280;69867;47.074;15.404;2024-02-04T02:18:29;97914.53;;;2.90
80537;BMP280;69867;47.074;15.404;2024-02-04T02:23:43;97899.19;;;2.95
80537;BMP280;69867;47.074;15.404;2024-02-04T02:26:13;97901.81;;;3.01
80537;BMP280;69867;47.074;15.404;2024-02-04T02:28:38;97913.03;;;3.09
80537;BMP280;69867;47.074;15.404;2024-02-04T02:31:05;97905.41;;;3.16
80537;BMP280;69867;47.074;15.404;2024-02-04T02:33:31;97913.19;;;3.24
80537;BMP280;69867;47.074;15.404;2024-02-04T02:35:57;97915.00;;;3.31
80537;BMP280;69867;47.074;15.404;2024-02-04T02:38:39;97905.63;;;3.36
80537;BMP280;69867;47.074;15.404;2024-02-04T02:41:07;97903.94;;;3.40
80537;BMP280;69867;47.074;15.404;2024-02-04T02:43:34;97911.69;;;3.44
80537;BMP280;69867;47.074;15.404;2024-02-04T02:46:00;97896.25;;;3.43
80537;BMP280;69867;47.074;15.404;2024-02-04T02:48:26;97891.97;;;3.42
80537;BMP280;69867;47.074;15.404;2024-02-04T02:50:51;97894.53;;;3.40
80537;BMP280;69867;47.074;15.404;2024-02-04T02:53:16;97902.16;;;3.31
80537;BMP280;69867;47.074;15.404;2024-02-04T02:55:42;97891.03;;;3.32
80537;BMP280;69867;47.074;15.404;2024-02-04T02:58:07;97888.44;;;3.29
80537;BMP280;69867;47.074;15.404;2024-02-04T03:00:33;97903.00;;;3.30
80537;BMP280;69867;47.074;15.404;2024-02-04T03:02:58;97896.97;;;3.27
80537;BMP280;69867;47.074;15.404;2024-02-04T03:05:23;97903.81;;;3.26
80537;BMP280;69867;47.074;15.404;2024-02-04T03:07:49;97898.66;;;3.26
80537;BMP280;69867;47.074;15.404;2024-02-04T03:10:14;97898.66;;;3.26
80537;BMP280;69867;47.074;15.404;2024-02-04T03:12:39;97906.31;;;3.20
80537;BMP280;69867;47.074;15.404;2024-02-04T03:15:05;97916.50;;;3.14
80537;BMP280;69867;47.074;15.404;2024-02-04T03:17:31;97901.03;;;3.06
80537;BMP280;69867;47.074;15.404;2024-02-04T03:19:56;97898.47;;;3.06
80537;BMP280;69867;47.074;15.404;2024-02-04T03:22:21;97896.59;;;2.95
80537;BMP280;69867;47.074;15.404;2024-02-04T03:24:50;97897.31;;;2.81
80537;BMP280;69867;47.074;15.404;2024-02-04T03:27:18;97887.00;;;2.77
80537;BMP280;69867;47.074;15.404;2024-02-04T03:29:44;97879.25;;;2.74
80537;BMP280;69867;47.074;15.404;2024-02-04T03:32:11;97876.66;;;2.72
80537;BMP280;69867;47.074;15.404;2024-02-04T03:34:36;97882.44;;;2.57
80537;BMP280;69867;47.074;15.404;2024-02-04T03:37:02;97876.50;;;2.60
80537;BMP280;69867;47.074;15.404;2024-02-04T03:39:27;97869.59;;;2.56
80537;BMP280;69867;47.074;15.404;2024-02-04T03:41:52;97867.84;;;2.53
80537;BMP280;69867;47.074;15.404;2024-02-04T03:44:18;97872.06;;;2.50
80537;BMP280;69867;47.074;15.404;2024-02-04T03:46:43;97866.88;;;2.45
80537;BMP280;69867;47.074;15.404;2024-02-04T03:49:09;97870.31;;;2.46
80537;BMP280;69867;47.074;15.404;2024-02-04T03:51:34;97869.41;;;2.41
80537;BMP280;69867;47.074;15.404;2024-02-04T03:53:59;97871.97;;;2.42
80537;BMP280;69867;47.074;15.404;2024-02-04T03:56:25;97858.34;;;2.45
80537;BMP280;69867;47.074;15.404;2024-02-04T03:58:50;97868.66;;;2.49
80537;BMP280;69867;47.074;15.404;2024-02-04T04:01:16;97876.59;;;2.66
80537;BMP280;69867;47.074;15.404;2024-02-04T04:03:44;97875.09;;;2.85
80537;BMP280;69867;47.074;15.404;2024-02-04T04:06:10;97876.06;;;2.95
80537;BMP280;69867;47.074;15.404;2024-02-04T04:08:35;97893.31;;;3.06
80537;BMP280;69867;47.074;15.404;2024-02-04T04:11:01;97867.78;;;3.18
80537;BMP280;69867;47.074;15.404;2024-02-04T04:13:26;97870.41;;;3.26
80537;BMP280;69867;47.074;15.404;2024-02-04T04:15:52;97880.69;;;3.26
80537;BMP280;69867;47.074;15.404;2024-02-04T04:18:17;97882.25;;;3.12
80537;BMP280;69867;47.074;15.404;2024-02-04T04:20:43;97886.50;;;3.08
80537;BMP280;69867;47.074;15.404;2024-02-04T04:23:08;97898.38;;;2.99
80537;BMP280;69867;47.074;15.404;2024-02-04T04:25:33;97899.13;;;2.92
80537;BMP280;69867;47.074;15.404;2024-02-04T04:27:59;97894.81;;;2.87
80537;BMP280;69867;47.074;15.404;2024-02-04T04:30:24;97898.25;;;2.88
80537;BMP280;69867;47.074;15.404;2024-02-04T04:32:50;97893.91;;;2.82
80537;BMP280;69867;47.074;15.404;2024-02-04T04:35:15;97899.84;;;2.80
80537;BMP280;69867;47.074;15.404;2024-02-04T04:37:41;97897.28;;;2.80
80537;BMP280;69867;47.074;15.404;2024-02-04T04:40:07;97897.22;;;2.75
80537;BMP280;69867;47.074;15.404;2024-02-04T04:42:32;97892.03;;;2.71
80537;BMP280;69867;47.074;15.404;2024-02-04T04:44:58;97881.75;;;2.69
80537;BMP280;69867;47.074;15.404;2024-02-04T04:47:23;97878.31;;;2.66
80537;BMP280;69867;47.074;15.404;2024-02-04T04:49:48;97884.28;;;2.66
80537;BMP280;69867;47.074;15.404;2024-02-04T04:52:14;97886.06;;;2.70
80537;BMP280;69867;47.074;15.404;2024-02-04T04:54:39;97898.81;;;2.64
80537;BMP280;69867;47.074;15.404;2024-02-04T04:57:05;97882.56;;;2.65
80537;BMP280;69867;47.074;15.404;2024-02-04T04:59:31;97886.00;;;2.67
80537;BMP280;69867;47.074;15.404;2024-02-04T05:01:56;97892.88;;;2.68
80537;BMP280;69867;47.074;15.404;2024-02-04T05:04:21;97881.72;;;2.66
80537;BMP280;69867;47.074;15.404;2024-02-04T05:06:47;97880.00;;;2.65
80537;BMP280;69867;47.074;15.404;2024-02-04T05:09:12;97888.56;;;2.66
80537;BMP280;69867;47.074;15.404;2024-02-04T05:11:37;97898.03;;;2.70
80537;BMP280;69867;47.074;15.404;2024-02-04T05:14:03;97900.53;;;2.65
80537;BMP280;69867;47.074;15.404;2024-02-04T05:16:28;97914.16;;;2.61
80537;BMP280;69867;47.074;15.404;2024-02-04T05:18:54;97910.75;;;2.62
80537;BMP280;69867;47.074;15.404;2024-02-04T05:21:19;97913.28;;;2.61
80537;BMP280;69867;47.074;15.404;2024-02-04T05:23:44;97907.22;;;2.57
80537;BMP280;69867;47.074;15.404;2024-02-04T05:26:10;97906.25;;;2.47
80537;BMP280;69867;47.074;15.404;2024-02-04T05:28:35;97904.47;;;2.43
80537;BMP280;69867;47.074;15.404;2024-02-04T05:31:03;97896.56;;;2.27
80537;BMP280;69867;47.074;15.404;2024-02-04T05:33:29;97890.53;;;2.23
80537;BMP280;69867;47.074;15.404;2024-02-04T05:35:54;97883.69;;;2.23
80537;BMP280;69867;47.074;15.404;2024-02-04T05:38:21;97895.56;;;2.17
80537;BMP280;69867;47.074;15.404;2024-02-04T05:40:46;97894.75;;;2.19
80537;BMP280;69867;47.074;15.404;2024-02-04T05:43:12;97903.28;;;2.20
80537;BMP280;69867;47.074;15.404;2024-02-04T05:45:37;97906.75;;;2.23
80537;BMP280;69867;47.074;15.404;2024-02-04T05:48:03;97929.91;;;2.28
80537;BMP280;69867;47.074;15.404;2024-02-04T05:50:28;97923.03;;;2.25
80537;BMP280;69867;47.074;15.404;2024-02-04T05:52:53;97920.50;;;2.29
80537;BMP280;69867;47.074;15.404;2024-02-04T05:55:19;97922.19;;;2.27
80537;BMP280;69867;47.074;15.404;2024-02-04T05:57:44;97928.16;;;2.25
80537;BMP280;69867;47.074;15.404;2024-02-04T06:00:10;97919.53;;;2.20
80537;BMP280;69867;47.074;15.404;2024-02-04T06:02:36;97938.34;;;2.21
80537;BMP280;69867;47.074;15.404;2024-02-04T06:05:02;97927.28;;;2.23
80537;BMP280;69867;47.074;15.404;2024-02-04T06:07:27;97929.03;;;2.28
80537;BMP280;69867;47.074;15.404;2024-02-04T06:09:54;97931.59;;;2.26
80537;BMP280;69867;47.074;15.404;2024-02-04T06:12:19;97926.47;;;2.28
80537;BMP280;69867;47.074;15.404;2024-02-04T06:14:44;97935.81;;;2.22
80537;BMP280;69867;47.074;15.404;2024-02-04T06:17:10;97923.84;;;2.21
80537;BMP280;69867;47.074;15.404;2024-02-04T06:19:35;97941.84;;;2.26
80537;BMP280;69867;47.074;15.404;2024-02-04T06:22:01;97932.44;;;2.27
80537;BMP280;69867;47.074;15.404;2024-02-04T06:24:26;97934.19;;;2.29
80537;BMP280;69867;47.074;15.404;2024-02-04T06:26:51;97930.84;;;2.35
80537;BMP280;69867;47.074;15.404;2024-02-04T06:29:17;97922.41;;;2.42
80537;BMP280;69867;47.074;15.404;2024-02-04T06:31:46;97934.56;;;2.55
80537;BMP280;69867;47.074;15.404;2024-02-04T06:34:12;97940.75;;;2.66
80537;BMP280;69867;47.074;15.404;2024-02-04T06:36:37;97955.44;;;2.78
80537;BMP280;69867;47.074;15.404;2024-02-04T06:39:03;97946.13;;;2.84
80537;BMP280;69867;47.074;15.404;2024-02-04T06:41:28;97945.28;;;2.85
80537;BMP280;69867;47.074;15.404;2024-02-04T06:43:53;97953.94;;;2.94
80537;BMP280;69867;47.074;15.404;2024-02-04T06:46:26;97960.78;;;2.95
80537;BMP280;69867;47.074;15.404;2024-02-04T06:48:51;97977.13;;;3.01
80537;BMP280;69867;47.074;15.404;2024-02-04T06:51:17;97961.72;;;3.00
80537;BMP280;69867;47.074;15.404;2024-02-04T06:53:42;97963.47;;;3.05
80537;BMP280;69867;47.074;15.404;2024-02-04T06:56:07;97981.44;;;3.04
80537;BMP280;69867;47.074;15.404;2024-02-04T06:58:33;97962.69;;;3.11
80537;BMP280;69867;47.074;15.404;2024-02-04T07:00:58;97965.22;;;3.08
80537;BMP280;69867;47.074;15.404;2024-02-04T07:03:23;97983.28;;;3.15
80537;BMP280;69867;47.074;15.404;2024-02-04T07:05:49;97992.56;;;3.04
80537;BMP280;69867;47.074;15.404;2024-02-04T07:08:14;97993.34;;;2.99
80537;BMP280;69867;47.074;15.404;2024-02-04T07:10:40;97996.84;;;3.04
80537;BMP280;69867;47.074;15.404;2024-02-04T07:13:05;97999.44;;;3.07
80537;BMP280;69867;47.074;15.404;2024-02-04T07:15:30;97987.50;;;3.09
80537;BMP280;69867;47.074;15.404;2024-02-04T07:17:56;97990.13;;;3.15
80537;BMP280;69867;47.074;15.404;2024-02-04T07:20:21;97988.53;;;3.23
80537;BMP280;69867;47.074;15.404;2024-02-04T07:22:46;97985.16;;;3.27
80537;BMP280;69867;47.074;15.404;2024-02-04T07:25:12;97985.22;;;3.33
80537;BMP280;69867;47.074;15.404;2024-02-04T07:27:37;97978.50;;;3.44
80537;BMP280;69867;47.074;15.404;2024-02-04T07:30:03;97970.00;;;3.50
80537;BMP280;69867;47.074;15.404;2024-02-04T07:32:28;97949.53;;;3.59
80537;BMP280;69867;47.074;15.404;2024-02-04T07:34:54;97945.34;;;3.69
80537;BMP280;69867;47.074;15.404;2024-02-04T07:37:19;97946.19;;;3.69
80537;BMP280;69867;47.074;15.404;2024-02-04T07:39:45;97959.97;;;3.76
80537;BMP280;69867;47.074;15.404;2024-02-04T07:42:10;97965.16;;;3.82
80537;BMP280;69867;47.074;15.404;2024-02-04T07:44:35;97973.84;;;3.90
80537;BMP280;69867;47.074;15.404;2024-02-04T07:47:01;97968.78;;;3.99
80537;BMP280;69867;47.074;15.404;2024-02-04T07:49:26;97978.28;;;4.06
80537;BMP280;69867;47.074;15.404;2024-02-04T07:51:52;97985.19;;;4.15
80537;BMP280;69867;47.074;15.404;2024-02-04T07:54:17;98001.53;;;4.18
80537;BMP280;69867;47.074;15.404;2024-02-04T07:56:42;97994.72;;;4.24
80537;BMP280;69867;47.074;15.404;2024-02-04T07:59:08;98005.91;;;4.29
80537;BMP280;69867;47.074;15.404;2024-02-04T08:01:33;97998.19;;;4.32
80537;BMP280;69867;47.074;15.404;2024-02-04T08:03:58;97999.13;;;4.38
80537;BMP280;69867;47.074;15.404;2024-02-04T08:06:24;97987.13;;;4.40
80537;BMP280;69867;47.074;15.404;2024-02-04T08:08:50;97982.03;;;4.48
80537;BMP280;69867;47.074;15.404;2024-02-04T08:11:18;97974.38;;;4.57
80537;BMP280;69867;47.074;15.404;2024-02-04T08:13:44;97971.84;;;4.63
80537;BMP280;69867;47.074;15.404;2024-02-04T08:16:10;97969.31;;;4.74
80537;BMP280;69867;47.074;15.404;2024-02-04T08:18:35;97971.09;;;4.86
80537;BMP280;69867;47.074;15.404;2024-02-04T08:21:01;97958.31;;;4.99
80537;BMP280;69867;47.074;15.404;2024-02-04T08:23:26;97953.22;;;5.16
80537;BMP280;69867;47.074;15.404;2024-02-04T08:25:51;97954.19;;;5.35
80537;BMP280;69867;47.074;15.404;2024-02-04T08:28:17;97959.38;;;5.52
80537;BMP280;69867;47.074;15.404;2024-02-04T08:30:42;97961.13;;;5.68
80537;BMP280;69867;47.074;15.404;2024-02-04T08:33:07;97960.31;;;5.87
80537;BMP280;69867;47.074;15.404;2024-02-04T08:35:33;97963.78;;;6.04
80537;BMP280;69867;47.074;15.404;2024-02-04T08:37:58;97945.72;;;6.29
80537;BMP280;69867;47.074;15.404;2024-02-04T08:40:23;97945.72;;;6.53
80537;BMP280;69867;47.074;15.404;2024-02-04T08:42:49;97956.03;;;6.73
80537;BMP280;69867;47.074;15.404;2024-02-04T08:45:14;97942.19;;;6.94
80537;BMP280;69867;47.074;15.404;2024-02-04T08:47:40;97950.72;;;7.16
80537;BMP280;69867;47.074;15.404;2024-02-04T08:50:06;97936.84;;;7.35
80537;BMP280;69867;47.074;15.404;2024-02-04T08:52:31;97934.16;;;7.55
80537;BMP280;69867;47.074;15.404;2024-02-04T08:54:56;97955.56;;;7.80
80537;BMP280;69867;47.074;15.404;2024-02-04T08:57:23;97945.94;;;8.01
80537;BMP280;69867;47.074;15.404;2024-02-04T08:59:48;97947.53;;;8.19
80537;BMP280;69867;47.074;15.404;2024-02-04T09:02:13;97956.94;;;8.34
80537;BMP280;69867;47.074;15.404;2024-02-04T09:04:39;97943.09;;;8.38
80537;BMP280;69867;47.074;15.404;2024-02-04T09:07:04;97937.78;;;8.50
80537;BMP280;69867;47.074;15.404;2024-02-04T09:09:29;97928.13;;;8.68
80537;BMP280;69867;47.074;15.404;2024-02-04T09:11:55;97923.66;;;8.82
80537;BMP280;69867;47.074;15.404;2024-02-04T09:14:20;97922.66;;;8.92
80537;BMP280;69867;47.074;15.404;2024-02-04T09:16:46;97942.34;;;9.10
80537;BMP280;69867;47.074;15.404;2024-02-04T09:19:11;97933.59;;;9.21
80537;BMP280;69867;47.074;15.404;2024-02-04T09:21:36;97940.63;;;9.12
80537;BMP280;69867;47.074;15.404;2024-02-04T09:24:02;97937.22;;;9.05
80537;BMP280;69867;47.074;15.404;2024-02-04T09:26:27;97938.94;;;9.06
80537;BMP280;69867;47.074;15.404;2024-02-04T09:28:52;97929.28;;;9.20
80537;BMP280;69867;47.074;15.404;2024-02-04T09:31:18;97931.63;;;9.39
80537;BMP280;69867;47.074;15.404;2024-02-04T09:33:43;97921.31;;;9.36
80537;BMP280;69867;47.074;15.404;2024-02-04T09:36:08;97933.44;;;9.32
80537;BMP280;69867;47.074;15.404;2024-02-04T09:38:34;97922.00;;;9.48
80537;BMP280;69867;47.074;15.404;2024-02-04T09:41:00;97915.69;;;9.66
80537;BMP280;69867;47.074;15.404;2024-02-04T09:43:26;97912.94;;;9.77
80537;BMP280;69867;47.074;15.404;2024-02-04T09:45:52;97903.09;;;9.97
80537;BMP280;69867;47.074;15.404;2024-02-04T09:48:18;97902.75;;;10.21
80537;BMP280;69867;47.074;15.404;2024-02-04T09:50:45;97904.03;;;10.48
80537;BMP280;69867;47.074;15.404;2024-02-04T09:53:11;97910.53;;;10.72
80537;BMP280;69867;47.074;15.404;2024-02-04T09:55:40;97918.88;;;10.88
80537;BMP280;69867;47.074;15.404;2024-02-04T09:58:05;97911.69;;;11.01
80537;BMP280;69867;47.074;15.404;2024-02-04T10:00:33;97919.19;;;11.16
80537;BMP280;69867;47.074;15.404;2024-02-04T10:02:58;97910.25;;;11.29
80537;BMP280;69867;47.074;15.404;2024-02-04T10:05:24;97917.09;;;11.33
80537;BMP280;69867;47.074;15.404;2024-02-04T10:07:50;97923.16;;;11.34
80537;BMP280;69867;47.074;15.404;2024-02-04T10:10:15;97920.63;;;11.31
80537;BMP280;69867;47.074;15.404;2024-02-04T10:12:41;97929.25;;;11.33
80537;BMP280;69867;47.074;15.404;2024-02-04T10:15:07;97918.56;;;11.46
80537;BMP280;69867;47.074;15.404;2024-02-04T10:17:33;97911.38;;;11.58
80537;BMP280;69867;47.074;15.404;2024-02-04T10:19:58;97908.59;;;11.65
80537;BMP280;69867;47.074;15.404;2024-02-04T10:22:26;97905.78;;;11.76
80537;BMP280;69867;47.074;15.404;2024-02-04T10:24:51;97899.53;;;11.84
80537;BMP280;69867;47.074;15.404;2024-02-04T10:27:17;97896.78;;;11.91
80537;BMP280;69867;47.074;15.404;2024-02-04T10:29:42;97896.47;;;12.04
80537;BMP280;69867;47.074;15.404;2024-02-04T10:32:08;97885.84;;;12.12
80537;BMP280;69867;47.074;15.404;2024-02-04T10:34:36;97884.25;;;12.06
80537;BMP280;69867;47.074;15.404;2024-02-04T10:37:02;97873.84;;;12.06
80537;BMP280;69867;47.074;15.404;2024-02-04T10:39:27;97858.91;;;12.13
80537;BMP280;69867;47.074;15.404;2024-02-04T10:41:53;97869.09;;;12.22
80537;BMP280;69867;47.074;15.404;2024-02-04T10:44:23;97852.50;;;12.26
80537;BMP280;69867;47.074;15.404;2024-02-04T10:46:50;97845.41;;;12.31
80537;BMP280;69867;47.074;15.404;2024-02-04T10:49:16;97847.69;;;12.43
80537;BMP280;69867;47.074;15.404;2024-02-04T10:51:45;97833.59;;;12.50
80537;BMP280;69867;47.074;15.404;2024-02-04T10:54:11;97838.44;;;12.64
80537;BMP280;69867;47.074;15.404;2024-02-04T10:56:56;97836.31;;;12.78
80537;BMP280;69867;47.074;15.404;2024-02-04T10:59:23;97828.25;;;12.86
80537;BMP280;69867;47.074;15.404;2024-02-04T11:01:50;97817.50;;;12.97
80537;BMP280;69867;47.074;15.404;2024-02-04T11:04:17;97830.16;;;13.12
80537;BMP280;69867;47.074;15.404;2024-02-04T11:06:42;97832.38;;;13.26
80537;BMP280;69867;47.074;15.404;2024-02-04T11:09:09;97832.03;;;13.36
80537;BMP280;69867;47.074;15.404;2024-02-04T11:11:36;97819.75;;;13.40
80537;BMP280;69867;47.074;15.404;2024-02-04T11:14:04;97816.25;;;13.41
80537;BMP280;69867;47.074;15.404;2024-02-04T11:23:10;97810.25;;;13.65
80537;BMP280;69867;47.074;15.404;2024-02-04T11:25:51;97788.56;;;13.63
80537;BMP280;69867;47.074;15.404;2024-02-04T11:28:20;97789.47;;;13.62
80537;BMP280;69867;47.074;15.404;2024-02-04T11:30:47;97786.53;;;13.71
80537;BMP280;69867;47.074;15.404;2024-02-04T11:33:13;97772.28;;;13.82
80537;BMP280;69867;47.074;15.404;2024-02-04T11:35:42;97773.28;;;13.77
80537;BMP280;69867;47.074;15.404;2024-02-04T11:38:08;97780.31;;;13.75
80537;BMP280;69867;47.074;15.404;2024-02-04T11:40:37;97769.91;;;13.74
80537;BMP280;69867;47.074;15.404;2024-02-04T11:43:06;97768.66;;;13.86
80537;BMP280;69867;47.074;15.404;2024-02-04T11:45:32;97768.25;;;13.98
80537;BMP280;69867;47.074;15.404;2024-02-04T11:48:01;97769.75;;;14.05
80537;BMP280;69867;47.074;15.404;2024-02-04T11:50:29;97771.34;;;14.09
80537;BMP280;69867;47.074;15.404;2024-02-04T11:53:15;97768.94;;;14.03
80537;BMP280;69867;47.074;15.404;2024-02-04T11:55:41;97766.34;;;14.03
80537;BMP280;69867;47.074;15.404;2024-02-04T11:58:07;97760.09;;;14.07
80537;BMP280;69867;47.074;15.404;2024-02-04T12:00:33;97745.09;;;14.12
80537;BMP280;69867;47.074;15.404;2024-02-04T12:03:03;97752.41;;;14.27
80537;BMP280;69867;47.074;15.404;2024-02-04T12:05:36;97744.31;;;14.35
80537;BMP280;69867;47.074;15.404;2024-02-04T12:08:03;97732.78;;;14.42
80537;BMP280;69867;47.074;15.404;2024-02-04T12:10:29;97728.22;;;14.47
80537;BMP280;69867;47.074;15.404;2024-02-04T12:12:55;97734.03;;;14.55
80537;BMP280;69867;47.074;15.404;2024-02-04T12:15:20;97734.09;;;14.54
80537;BMP280;69867;47.074;15.404;2024-02-04T12:17:46;97732.31;;;14.54
80537;BMP280;69867;47.074;15.404;2024-02-04T12:20:11;97716.81;;;14.50
80537;BMP280;69867;47.074;15.404;2024-02-04T12:22:37;97714.34;;;14.45
80537;BMP280;69867;47.074;15.404;2024-02-04T12:25:02;97709.19;;;14.44
80537;BMP280;69867;47.074;15.404;2024-02-04T12:27:28;97708.34;;;14.43
80537;BMP280;69867;47.074;15.404;2024-02-04T12:29:53;97698.81;;;14.40
80537;BMP280;69867;47.074;15.404;2024-02-04T12:32:19;97693.69;;;14.37
80537;BMP280;69867;47.074;15.404;2024-02-04T12:34:48;97700.31;;;14.23
80537;BMP280;69867;47.074;15.404;2024-02-04T12:37:14;97699.03;;;14.09
80537;BMP280;69867;47.074;15.404;2024-02-04T12:39:39;97698.41;;;14.03
80537;BMP280;69867;47.074;15.404;2024-02-04T12:42:05;97704.41;;;14.05
80537;BMP280;69867;47.074;15.404;2024-02-04T12:44:31;97703.63;;;14.03
80537;BMP280;69867;47.074;15.404;2024-02-04T12:46:56;97693.16;;;14.03
80537;BMP280;69867;47.074;15.404;2024-02-04T12:49:22;97693.44;;;13.95
80537;BMP280;69867;47.074;15.404;2024-02-04T12:51:48;97683.03;;;13.94
80537;BMP280;69867;47.074;15.404;2024-02-04T12:54:13;97684.84;;;13.92
80537;BMP280;69867;47.074;15.404;2024-02-04T12:59:29;97675.47;;;13.86
80537;BMP280;69867;47.074;15.404;2024-02-04T13:01:56;97669.41;;;13.86
80537;BMP280;69867;47.074;15.404;2024-02-04T13:04:22;97669.50;;;13.83
80537;BMP280;69867;47.074;15.404;2024-02-04T13:06:47;97666.78;;;13.86
80537;BMP280;69867;47.074;15.404;2024-02-04T13:09:16;97668.31;;;13.91
80537;BMP280;69867;47.074;15.404;2024-02-04T13:11:42;97658.94;;;13.86
80537;BMP280;69867;47.074;15.404;2024-02-04T13:14:07;97655.53;;;13.84
80537;BMP280;69867;47.074;15.404;2024-02-04T13:16:33;97657.09;;;13.89
80537;BMP280;69867;47.074;15.404;2024-02-04T13:18:58;97659.53;;;13.94
80537;BMP280;69867;47.074;15.404;2024-02-04T13:21:24;97656.81;;;13.97
80537;BMP280;69867;47.074;15.404;2024-02-04T13:23:50;97652.38;;;13.99
80537;BMP280;69867;47.074;15.404;2024-02-04T13:26:16;97652.66;;;13.91
80537;BMP280;69867;47.074;15.404;2024-02-04T13:28:42;97662.25;;;13.91
80537;BMP280;69867;47.074;15.404;2024-02-04T13:31:08;97650.22;;;13.87
80537;BMP280;69867;47.074;15.404;2024-02-04T13:33:33;97637.94;;;13.89
80537;BMP280;69867;47.074;15.404;2024-02-04T13:35:58;97627.50;;;13.89
80537;BMP280;69867;47.074;15.404;2024-02-04T13:38:24;97637.84;;;13.92
80537;BMP280;69867;47.074;15.404;2024-02-04T13:40:49;97630.78;;;13.94
80537;BMP280;69867;47.074;15.404;2024-02-04T13:43:15;97629.94;;;13.93
80537;BMP280;69867;47.074;15.404;2024-02-04T13:45:40;97633.41;;;13.94
80537;BMP280;69867;47.074;15.404;2024-02-04T13:48:06;97636.25;;;13.88
80537;BMP280;69867;47.074;15.404;2024-02-04T13:50:31;97636.94;;;13.93
80537;BMP280;69867;47.074;15.404;2024-02-04T13:52:56;97631.28;;;13.80
80537;BMP280;69867;47.074;15.404;2024-02-04T13:55:22;97624.53;;;13.74
80537;BMP280;69867;47.074;15.404;2024-02-04T13:57:47;97614.97;;;13.73
80537;BMP280;69867;47.074;15.404;2024-02-04T14:00:13;97626.28;;;13.74
80537;BMP280;69867;47.074;15.404;2024-02-04T14:02:38;97622.81;;;13.73
80537;BMP280;69867;47.074;15.404;2024-02-04T14:05:04;97628.56;;;13.58
80537;BMP280;69867;47.074;15.404;2024-02-04T14:07:29;97634.00;;;13.52
80537;BMP280;69867;47.074;15.404;2024-02-04T14:09:55;97631.50;;;13.49